Time;durP1;ratioP1;P1;durP2;ratioP2;P2;SDS_P1;SDS_P2;PMS_P1;PMS_P2;Temp;Humidity;BMP_temperature;BMP_pressure;BME280_temperature;BME280_humidity;BME280_pressure;Samples;Min_cycle;Max_cycle;Signal;HPM_P1;HPM_P2
2023/02/25 00:00:33;;;;;;;;;19.67;18.00;;;;;9.19;58.46;100954.94;2024025;28;3575244;-73
2023/02/25 00:01:44;;;;;;;;;18.00;13.00;;;;;9.18;59.02;100953.22;2040656;28;2817967;-73
2023/02/25 00:02:57;;;;;;;;;26.00;19.67;;;;;9.17;59.08;100952.38;2009695;27;3577717;-73
2023/02/25 00:04:11;;;;;;;;;18.00;16.29;;;;;9.17;58.89;100957.59;2053450;28;1825765;-73
2023/02/25 00:05:23;;;;;;;;;21.67;19.33;;;;;9.17;59.07;100956.75;2022697;28;3573152;-73
2023/02/25 00:06:35;;;;;;;;;20.00;16.00;;;;;9.16;59.24;100953.25;2018466;28;3564824;-73
2023/02/25 00:07:47;;;;;;;;;21.67;20.00;;;;;9.15;58.64;100961.16;2040205;28;3566959;-73
2023/02/25 00:08:58;;;;;;;;;15.00;14.00;;;;;9.16;58.90;100955.88;2039050;28;2796121;-73
2023/02/25 00:10:11;;;;;;;;;16.25;12.50;;;;;9.17;58.90;100957.59;2050939;28;1819108;-73
2023/02/25 00:11:25;;;;;;;;;15.50;14.17;;;;;9.16;58.74;100961.13;2032099;27;1827427;-73
2023/02/25 00:12:36;;;;;;;;;18.50;14.00;;;;;9.14;58.92;100965.53;2000917;27;2808616;-73
2023/02/25 00:13:46;;;;;;;;;16.50;13.00;;;;;9.11;58.98;100963.00;2000612;28;2806538;-73
2023/02/25 00:14:57;;;;;;;;;17.00;12.00;;;;;9.09;58.82;100964.78;2032468;28;2800282;-73
2023/02/25 00:16:11;;;;;;;;;12.40;10.80;;;;;9.07;59.11;100963.97;2055833;28;1821114;-73
2023/02/25 00:17:22;;;;;;;;;21.00;10.50;;;;;9.04;58.87;100957.03;2024211;27;2829441;-73
2023/02/25 00:18:33;;;;;;;;;13.50;13.50;;;;;9.04;58.41;100953.56;2000786;28;2805439;-73
2023/02/25 00:19:44;;;;;;;;;19.50;13.00;;;;;9.02;58.89;100957.94;1991940;28;2832594;-73
2023/02/25 00:20:55;;;;;;;;;13.00;10.00;;;;;9.01;58.71;100954.50;1998588;28;2792932;-73
2023/02/25 00:22:06;;;;;;;;;15.00;11.50;;;;;9.02;58.61;100953.56;2020074;28;1839829;-73
2023/02/25 00:23:20;;;;;;;;;16.33;12.67;;;;;9.02;58.96;100957.94;2054549;27;1827413;-73
2023/02/25 00:24:31;;;;;;;;;14.75;11.75;;;;;9.02;58.89;100964.06;2015589;28;1852421;-73
2023/02/25 00:25:42;;;;;;;;;13.50;11.00;;;;;9.03;58.73;100954.44;2015383;28;2794494;-73
2023/02/25 00:26:53;;;;;;;;;12.00;10.25;;;;;9.02;59.15;100958.81;2050689;28;1845097;-73
2023/02/25 00:28:07;;;;;;;;;12.50;9.00;;;;;9.02;58.96;100963.19;2048557;28;1825377;-73
2023/02/25 00:29:17;;;;;;;;;14.50;12.50;;;;;9.00;59.05;100961.50;1997811;28;2796117;-73
2023/02/25 00:30:28;;;;;;;;;11.00;10.00;;;;;9.01;58.88;100957.13;2040307;28;3520059;-73
2023/02/25 00:31:40;;;;;;;;;16.00;11.25;;;;;9.02;59.06;100963.19;2049468;28;1841939;-73
2023/02/25 00:32:51;;;;;;;;;13.00;10.50;;;;;9.03;58.70;100964.94;2039877;28;1838305;-73
2023/02/25 00:34:02;;;;;;;;;12.33;10.67;;;;;9.03;58.91;100957.06;2023797;28;3511692;-73
2023/02/25 00:35:13;;;;;;;;;12.33;10.00;;;;;9.02;59.02;100963.19;2038131;28;3514814;-72
2023/02/25 00:36:25;;;;;;;;;15.00;11.00;;;;;9.01;58.88;100959.75;2040492;28;2796099;-73
2023/02/25 00:37:37;;;;;;;;;12.00;11.50;;;;;8.99;59.04;100957.13;2038973;27;1841966;-73
2023/02/25 00:38:50;;;;;;;;;14.00;10.67;;;;;8.97;58.85;100963.31;2016608;28;3506497;-73
2023/02/25 00:40:09;;;;;;;;;16.83;13.67;;;;;8.96;59.33;100959.81;2053597;28;1827428;-73
2023/02/25 00:41:22;;;;;;;;;12.00;11.50;;;;;8.95;59.19;100963.34;2001643;28;2789843;-73
2023/02/25 00:42:33;;;;;;;;;15.33;12.67;;;;;8.94;58.89;100966.84;2023731;28;3527313;-73
2023/02/25 00:43:50;;;;;;;;;15.00;12.50;;;;;8.93;59.12;100962.53;2034148;28;2797127;-73
2023/02/25 00:45:00;;;;;;;;;10.00;9.00;;;;;8.91;58.94;100956.47;2023276;28;3485652;-73
2023/02/25 00:46:11;;;;;;;;;11.67;10.33;;;;;8.91;58.58;100960.84;2056098;27;1846149;-73
2023/02/25 00:47:22;;;;;;;;;15.67;13.00;;;;;8.90;58.98;100967.84;2001245;28;3525218;-73
2023/02/25 00:48:35;;;;;;;;;15.00;11.00;;;;;8.89;58.92;100959.09;2046959;28;1845105;-73
2023/02/25 00:49:46;;;;;;;;;12.75;9.75;;;;;8.88;58.85;100962.63;2035874;28;1828863;-73
2023/02/25 00:51:17;;;;;;;;;12.50;7.33;;;;;8.86;58.91;100960.94;2051733;28;2755997;-73
2023/02/25 00:52:32;;;;;;;;;10.00;8.00;;;;;8.83;59.36;100972.34;2025270;28;2747148;-73
2023/02/25 00:53:43;;;;;;;;;13.50;11.00;;;;;8.81;59.27;100966.28;2000236;28;2794017;-73
2023/02/25 00:54:54;;;;;;;;;13.00;10.00;;;;;8.80;58.95;100968.91;2023140;28;2777340;-73
2023/02/25 00:56:07;;;;;;;;;12.50;10.00;;;;;8.78;58.81;100964.59;2041757;28;2787763;-73
2023/02/25 00:57:18;;;;;;;;;15.75;10.00;;;;;8.78;59.65;100961.97;2038490;28;1835753;-73
2023/02/25 00:58:29;;;;;;;;;11.25;10.00;;;;;8.80;59.25;100958.44;2038422;28;1842012;-73
2023/02/25 00:59:40;;;;;;;;;13.00;9.50;;;;;8.80;59.68;100959.31;2023803;28;2773188;-73
2023/02/25 01:00:51;;;;;;;;;10.00;8.75;;;;;8.81;59.33;100962.81;2058246;27;1866099;-73
2023/02/25 01:02:02;;;;;;;;;10.00;8.67;;;;;8.80;59.42;100976.78;2004253;27;2760717;-73
2023/02/25 01:03:15;;;;;;;;;8.80;8.80;;;;;8.78;59.00;100972.47;2052989;27;2741924;-73
2023/02/25 01:04:26;;;;;;;;;11.67;11.00;;;;;8.74;59.15;100968.16;2002828;27;3518014;-73
2023/02/25 01:05:40;;;;;;;;;10.33;9.67;;;;;8.74;59.00;100965.53;2050157;27;1837773;-73
2023/02/25 01:06:53;;;;;;;;;14.00;10.33;;;;;8.73;59.23;100961.22;2011448;28;1839857;-73
2023/02/25 01:08:03;;;;;;;;;10.33;8.00;;;;;8.72;59.42;100958.59;2002504;28;3476266;-73
2023/02/25 01:09:14;;;;;;;;;12.33;8.33;;;;;8.72;59.52;100962.09;2041667;27;3471065;-73
2023/02/25 01:10:27;;;;;;;;;10.33;9.33;;;;;8.74;59.36;100962.06;2032798;27;3489811;-73
2023/02/25 01:11:37;;;;;;;;;9.33;9.00;;;;;8.74;59.36;100965.53;2026762;27;2749235;-73
2023/02/25 01:12:48;;;;;;;;;10.33;10.00;;;;;8.74;59.29;100965.53;2042361;27;3511693;-73
2023/02/25 01:14:06;;;;;;;;;8.50;7.25;;;;;8.76;59.33;100968.16;2043982;28;2728757;-73
2023/02/25 01:15:19;;;;;;;;;5.50;5.00;;;;;8.76;58.98;100969.00;2046755;28;2729421;-73
2023/02/25 01:16:34;;;;;;;;;9.17;8.67;;;;;8.76;58.70;100963.78;2045947;28;2738853;-73
2023/02/25 01:17:47;;;;;;;;;8.33;7.00;;;;;8.80;59.11;100974.16;2024624;28;2738866;-73
2023/02/25 01:19:06;;;;;;;;;12.50;7.50;;;;;8.80;59.12;100969.78;2022023;28;2758630;-73
2023/02/25 01:20:18;;;;;;;;;9.33;8.00;;;;;8.80;59.09;100968.91;2002253;28;2743021;-73
2023/02/25 01:21:35;;;;;;;;;8.67;7.50;;;;;8.83;58.86;100968.88;2051053;28;2741249;-73
2023/02/25 01:22:45;;;;;;;;;13.00;9.00;;;;;8.82;59.21;100972.38;2023690;28;3478374;-73
2023/02/25 01:24:12;;;;;;;;;14.00;8.00;;;;;8.81;59.28;100961.06;2042095;27;3496112;-73
2023/02/25 01:25:24;;;;;;;;;9.33;8.00;;;;;8.84;59.18;100970.59;2033406;27;3454407;-73
2023/02/25 01:26:38;;;;;;;;;10.67;8.00;;;;;8.83;59.05;100964.50;2032518;27;2742132;-73
2023/02/25 01:27:49;;;;;;;;;8.00;7.00;;;;;8.84;58.86;100973.22;2026965;27;2746110;-73
2023/02/25 01:29:00;;;;;;;;;9.00;8.00;;;;;8.85;59.37;100974.94;2042426;27;2733634;-73
2023/02/25 01:30:11;;;;;;;;;11.33;8.00;;;;;8.85;58.82;100969.69;2023555;28;2767007;-73
2023/02/25 01:31:23;;;;;;;;;11.67;8.00;;;;;8.85;59.57;100974.94;2020834;28;2758686;-73
2023/02/25 01:32:37;;;;;;;;;9.67;8.00;;;;;8.83;59.05;100974.97;2052514;28;2744030;-73
2023/02/25 01:33:47;;;;;;;;;11.00;8.00;;;;;8.84;58.95;100973.22;2002612;28;2762868;-73
2023/02/25 01:34:58;;;;;;;;;10.67;8.00;;;;;8.83;58.94;100969.72;2040928;27;2749245;-73
2023/02/25 01:36:10;;;;;;;;;6.00;3.00;;;;;8.83;59.41;100963.63;2052186;28;2738822;-73
2023/02/25 01:37:20;;;;;;;;;13.00;8.00;;;;;8.83;59.33;100971.50;2026633;27;2754470;-73
2023/02/25 01:38:32;;;;;;;;;9.33;8.00;;;;;8.84;59.13;100973.22;2050829;28;2740897;-73
2023/02/25 01:39:44;;;;;;;;;10.50;7.25;;;;;8.85;59.22;100978.41;2016739;28;1813327;-73
2023/02/25 01:40:58;;;;;;;;;8.67;6.67;;;;;8.88;59.07;100972.25;2052963;28;2740246;-73
2023/02/25 01:42:13;;;;;;;;;11.00;7.67;;;;;8.87;59.35;100970.50;2020848;28;2771578;-73
2023/02/25 01:43:23;;;;;;;;;8.00;5.00;;;;;8.86;59.04;100971.44;2031927;28;1837920;-73
2023/02/25 01:45:12;;;;;;;;;7.67;7.00;;;;;8.86;59.26;100969.69;2020326;28;2746130;-73
2023/02/25 01:46:23;;;;;;;;;11.00;8.00;;;;;8.84;59.01;100970.59;2001596;28;3473148;-73
2023/02/25 01:47:38;;;;;;;;;11.00;8.33;;;;;8.85;58.56;100977.56;2040398;28;2752366;-73
2023/02/25 01:48:49;;;;;;;;;11.33;8.00;;;;;8.85;58.95;100969.69;2025006;27;3479415;-73
2023/02/25 01:50:01;;;;;;;;;9.67;9.00;;;;;8.87;59.46;100970.50;2048598;28;2749227;-73
2023/02/25 01:51:14;;;;;;;;;8.83;7.67;;;;;8.87;58.98;100975.75;2028313;28;2744016;-73
2023/02/25 01:52:27;;;;;;;;;9.17;6.17;;;;;8.87;59.01;100973.13;2028908;28;2748191;-73
2023/02/25 01:53:46;;;;;;;;;9.83;6.17;;;;;8.88;58.95;100977.50;2050837;27;2750282;-73
2023/02/25 01:54:57;;;;;;;;;8.33;5.67;;;;;8.88;58.98;100970.50;2002107;28;2739912;-73
2023/02/25 01:56:15;;;;;;;;;7.50;5.17;;;;;8.88;59.14;100967.88;2047842;28;2743338;-73
2023/02/25 01:57:28;;;;;;;;;8.83;7.00;;;;;8.89;59.31;100963.47;2027838;28;2745101;-73
2023/02/25 01:58:42;;;;;;;;;8.50;6.00;;;;;8.88;58.69;100967.88;2044383;28;2735705;-73
2023/02/25 01:59:55;;;;;;;;;7.50;5.50;;;;;8.89;59.41;100960.84;2051966;28;2748234;-73
2023/02/25 02:01:15;;;;;;;;;8.00;5.17;;;;;8.89;59.02;100960.84;2024930;28;2746483;-73
2023/02/25 02:02:32;;;;;;;;;7.33;6.67;;;;;8.90;59.26;100965.22;2050914;27;2742400;-73
2023/02/25 02:03:47;;;;;;;;;6.67;5.17;;;;;8.89;59.13;100964.34;2028807;28;2741936;-73
2023/02/25 02:04:57;;;;;;;;;10.67;7.00;;;;;8.93;59.37;100959.03;2020422;28;2763830;-73
2023/02/25 02:06:16;;;;;;;;;6.33;5.00;;;;;8.94;59.08;100966.84;2049612;27;2746475;-73
2023/02/25 02:07:30;;;;;;;;;8.17;5.33;;;;;8.96;59.05;100958.97;2027743;28;2746090;-73
2023/02/25 02:08:44;;;;;;;;;6.00;5.00;;;;;8.96;58.82;100961.59;2052812;27;2746114;-72
2023/02/25 02:09:58;;;;;;;;;9.50;6.00;;;;;8.97;58.83;100961.56;2050720;28;2749220;-73
2023/02/25 02:11:12;;;;;;;;;8.00;5.17;;;;;8.96;58.49;100957.19;2022424;28;2745069;-73
2023/02/25 02:12:30;;;;;;;;;8.67;5.00;;;;;8.96;59.01;100958.97;2046449;28;2756545;-73
2023/02/25 02:13:48;;;;;;;;;7.50;7.00;;;;;8.96;58.86;100957.19;2051680;27;2739303;-73
2023/02/25 02:15:01;;;;;;;;;9.00;6.00;;;;;8.97;58.69;100960.69;2020732;28;2757644;-73
2023/02/25 02:16:38;;;;;;;;;5.33;4.83;;;;;8.95;58.77;100947.63;2052457;27;2749238;-73
2023/02/25 02:17:58;;;;;;;;;8.17;7.00;;;;;8.97;58.57;100956.31;2053179;27;2739860;-73
2023/02/25 02:19:38;;;;;;;;;6.00;4.17;;;;;8.97;58.47;100956.31;2051648;28;2741995;-73
2023/02/25 02:21:21;;;;;;;;;11.67;6.00;;;;;8.98;58.53;100963.28;2017981;28;2760693;-73
2023/02/25 02:22:49;;;;;;;;;8.83;5.83;;;;;8.99;58.60;100959.75;2051612;28;2731550;-73
2023/02/25 02:24:05;;;;;;;;;6.33;4.33;;;;;8.98;58.73;100958.06;2029000;27;2744012;-73
2023/02/25 02:25:55;;;;;;;;;5.33;4.33;;;;;8.98;58.70;100958.06;2052463;27;2743045;-73
2023/02/25 02:27:09;;;;;;;;;6.00;5.67;;;;;8.98;58.51;100951.94;2018013;28;3459603;-73
2023/02/25 02:29:01;;;;;;;;;4.33;3.67;;;;;8.97;58.44;100953.69;2026139;27;2750269;-73
2023/02/25 02:30:26;;;;;;;;;5.83;5.00;;;;;8.95;58.08;100954.63;2036666;28;2749231;-73
2023/02/25 02:32:01;;;;;;;;;4.83;4.17;;;;;8.92;58.65;100952.94;2048554;28;2749256;-73
2023/02/25 02:33:43;;;;;;;;;4.83;3.00;;;;;8.87;58.54;100949.53;2052310;27;2754463;-73
2023/02/25 02:35:08;;;;;;;;;7.17;5.00;;;;;8.83;58.88;100945.28;2005243;28;2742973;-73
2023/02/25 02:36:23;;;;;;;;;5.67;3.00;;;;;8.81;58.71;100947.94;2025289;28;2752418;-73
2023/02/25 02:38:00;;;;;;;;;3.67;1.33;;;;;8.80;58.98;100946.22;2052393;27;2735726;-73
2023/02/25 02:39:31;;;;;;;;;6.50;5.00;;;;;8.81;58.66;100954.94;2043406;28;2739853;-73
2023/02/25 02:41:09;;;;;;;;;5.17;4.67;;;;;8.77;58.38;100952.38;2043862;28;2750309;-73
2023/02/25 02:42:22;;;;;;;;;5.50;5.33;;;;;8.77;58.62;100948.88;2024886;28;2750276;-73
2023/02/25 02:43:42;;;;;;;;;8.67;7.17;;;;;8.76;58.98;100948.03;2051293;28;2744011;-73
2023/02/25 02:44:56;;;;;;;;;8.17;6.17;;;;;8.74;58.81;100948.97;2050514;28;2742428;-73
2023/02/25 02:46:19;;;;;;;;;6.50;4.00;;;;;8.71;59.38;100943.78;2027070;27;2740889;-73
2023/02/25 02:47:35;;;;;;;;;6.00;5.00;;;;;8.69;58.92;100950.81;2025090;28;2746250;-73
2023/02/25 02:49:00;;;;;;;;;5.50;5.50;;;;;8.67;59.06;100945.59;2037074;28;2746078;-73
2023/02/25 02:50:26;;;;;;;;;4.83;4.00;;;;;8.66;59.13;100946.50;2044217;28;2750276;-73
2023/02/25 02:51:44;;;;;;;;;5.00;4.00;;;;;8.65;59.34;100950.88;2022357;28;2750257;-73
2023/02/25 02:53:02;;;;;;;;;5.00;5.00;;;;;8.62;58.84;100942.22;2045731;28;2740187;-73
2023/02/25 02:54:18;;;;;;;;;7.50;5.50;;;;;8.62;59.12;100947.47;2050159;27;2746102;-73
2023/02/25 02:55:46;;;;;;;;;6.33;5.33;;;;;8.60;59.21;100952.75;2051788;27;2752364;-73
2023/02/25 02:57:01;;;;;;;;;7.50;5.00;;;;;8.60;58.89;100957.09;2045848;27;2752344;-73
2023/02/25 02:58:21;;;;;;;;;5.00;4.00;;;;;8.60;59.22;100954.50;2043954;28;2749707;-73
2023/02/25 02:59:49;;;;;;;;;4.17;3.83;;;;;8.58;59.57;100956.25;2044835;28;2750269;-73
2023/02/25 03:01:25;;;;;;;;;2.50;1.50;;;;;8.57;59.13;100962.41;2050409;28;2731519;-73
2023/02/25 03:02:38;;;;;;;;;6.67;4.00;;;;;8.54;59.51;100953.69;2023847;27;2750349;-73
2023/02/25 03:03:58;;;;;;;;;9.17;4.67;;;;;8.51;59.39;100959.03;2052388;28;2743051;-73
2023/02/25 03:05:16;;;;;;;;;6.00;4.83;;;;;8.50;59.80;100962.50;2028428;28;2749238;-73
2023/02/25 03:06:33;;;;;;;;;8.33;5.50;;;;;8.50;59.87;100957.28;2046036;28;2748208;-73
2023/02/25 03:07:59;;;;;;;;;5.50;3.83;;;;;8.48;59.87;100953.84;2022329;28;2754435;-73
2023/02/25 03:09:17;;;;;;;;;8.00;5.00;;;;;8.47;59.28;100954.72;2022658;28;2742996;-73
2023/02/25 03:10:31;;;;;;;;;5.00;3.83;;;;;8.46;59.49;100958.25;2043923;28;2741924;-73
2023/02/25 03:11:44;;;;;;;;;6.17;5.00;;;;;8.44;59.83;100958.25;2050246;28;2746127;-73
2023/02/25 03:12:55;;;;;;;;;6.33;6.00;;;;;8.42;59.93;100953.97;2016678;28;3460656;-73
2023/02/25 03:14:07;;;;;;;;;5.00;5.00;;;;;8.39;60.12;100957.50;2048434;28;2750604;-73
2023/02/25 03:15:22;;;;;;;;;5.83;4.00;;;;;8.36;60.17;100959.31;2051015;28;2749212;-73
2023/02/25 03:16:47;;;;;;;;;5.00;4.00;;;;;8.32;59.80;100959.38;2051879;28;2750261;-72
2023/02/25 03:18:10;;;;;;;;;4.50;4.50;;;;;8.29;60.13;100963.81;2026544;28;2754431;-73
2023/02/25 03:19:27;;;;;;;;;8.67;5.00;;;;;8.26;60.37;100959.50;2016901;28;3478841;-73
2023/02/25 03:20:43;;;;;;;;;5.17;5.00;;;;;8.22;60.44;100963.09;2051934;27;2754426;-73
2023/02/25 03:22:03;;;;;;;;;6.17;4.17;;;;;8.21;60.39;100964.84;2026052;27;2754444;-73
2023/02/25 03:23:24;;;;;;;;;8.17;5.33;;;;;8.18;60.96;100964.03;2052272;28;2749223;-73
2023/02/25 03:24:44;;;;;;;;;12.33;7.00;;;;;8.18;60.28;100964.03;2025999;27;2760662;-73
2023/02/25 03:26:05;;;;;;;;;10.00;6.67;;;;;8.19;60.31;100963.13;2023978;28;2748242;-73
2023/02/25 03:27:33;;;;;;;;;6.67;3.33;;;;;8.18;60.64;100961.41;2024631;28;3470366;-73
2023/02/25 03:28:47;;;;;;;;;7.00;5.00;;;;;8.18;60.42;100966.63;2022628;27;2748173;-73
2023/02/25 03:30:30;;;;;;;;;5.17;5.17;;;;;8.17;60.02;100968.38;2050729;28;2752824;-73
2023/02/25 03:31:58;;;;;;;;;4.50;4.50;;;;;8.17;60.41;100964.94;2052039;28;2744030;-73
2023/02/25 03:33:26;;;;;;;;;3.67;3.33;;;;;8.16;60.60;100960.56;2060192;27;2746094;-73
2023/02/25 03:34:44;;;;;;;;;5.83;3.33;;;;;8.16;60.65;100968.44;2052639;27;2748170;-73
2023/02/25 03:35:59;;;;;;;;;7.83;3.50;;;;;8.16;60.00;100968.44;2052526;28;2748178;-73
2023/02/25 03:37:20;;;;;;;;;4.83;3.67;;;;;8.14;60.69;100971.09;2028116;28;2744031;-73
2023/02/25 03:38:40;;;;;;;;;6.00;3.67;;;;;8.14;60.65;100965.84;2049768;28;2754435;-73
2023/02/25 03:39:58;;;;;;;;;3.83;3.00;;;;;8.13;60.16;100968.47;2052801;27;2735698;-73
2023/02/25 03:41:13;;;;;;;;;3.83;3.00;;;;;8.10;60.53;100970.25;2052267;27;2741936;-73
2023/02/25 03:42:32;;;;;;;;;4.83;3.00;;;;;8.11;60.23;100971.13;2050482;27;2736747;-73
2023/02/25 03:43:52;;;;;;;;;5.50;3.00;;;;;8.08;60.41;100964.19;2051903;28;2744040;-73
2023/02/25 03:45:09;;;;;;;;;5.17;3.67;;;;;8.08;60.49;100973.81;2046605;27;2738843;-73
2023/02/25 03:46:23;;;;;;;;;6.00;4.00;;;;;8.07;60.26;100977.34;2048915;28;2746107;-73
2023/02/25 03:47:38;;;;;;;;;4.00;3.00;;;;;8.06;61.01;100986.94;2044925;28;2737766;-73
2023/02/25 03:48:53;;;;;;;;;3.17;3.17;;;;;8.04;60.88;100980.88;2051646;28;2754443;-72
2023/02/25 03:50:28;;;;;;;;;5.00;3.00;;;;;8.03;60.61;100983.50;2051085;27;2738803;-72
2023/02/25 03:51:46;;;;;;;;;6.33;3.33;;;;;8.02;60.32;100981.78;2052769;28;2741943;-73
2023/02/25 03:52:59;;;;;;;;;4.00;2.67;;;;;8.00;60.82;100976.56;2052317;27;2743048;-72
2023/02/25 03:54:15;;;;;;;;;5.50;3.83;;;;;7.98;60.38;100975.72;2050105;27;2746126;-73
2023/02/25 03:55:29;;;;;;;;;5.33;3.50;;;;;7.98;60.68;100980.97;2044274;28;2741924;-73
2023/02/25 03:56:45;;;;;;;;;4.17;3.00;;;;;7.98;60.65;100980.97;2049956;28;2742981;-72
2023/02/25 03:57:58;;;;;;;;;3.33;2.33;;;;;7.99;60.75;100982.69;2044400;28;2730521;-73
2023/02/25 03:59:12;;;;;;;;;3.33;3.17;;;;;7.98;61.23;100975.72;2051091;28;2739852;-73
2023/02/25 04:00:31;;;;;;;;;3.17;1.67;;;;;7.98;60.96;100980.97;2050750;28;2736752;-73
2023/02/25 04:01:47;;;;;;;;;5.83;2.83;;;;;7.95;61.12;100981.03;2049724;28;2725326;-73
2023/02/25 04:03:01;;;;;;;;;3.50;1.50;;;;;7.95;60.38;100975.81;2044751;27;2744003;-72
2023/02/25 04:04:14;;;;;;;;;3.33;3.00;;;;;7.92;60.55;100979.34;2050944;28;2741947;-72
2023/02/25 04:05:27;;;;;;;;;3.50;3.50;;;;;7.91;60.43;100974.13;2052692;27;2739869;-73
2023/02/25 04:06:40;;;;;;;;;4.33;3.83;;;;;7.90;60.60;100980.25;2051076;27;2739849;-72
2023/02/25 04:07:55;;;;;;;;;6.33;4.17;;;;;7.88;60.89;100981.13;2029323;27;2749247;-73
2023/02/25 04:09:09;;;;;;;;;7.33;5.17;;;;;7.86;59.99;100975.06;2053718;27;2742961;-73
2023/02/25 04:10:22;;;;;;;;;4.33;4.33;;;;;7.87;60.86;100983.78;2053121;27;2747175;-73
2023/02/25 04:11:35;;;;;;;;;4.50;3.17;;;;;7.88;60.57;100982.88;2053184;28;2740910;-73
2023/02/25 04:12:50;;;;;;;;;3.17;3.17;;;;;7.88;60.92;100985.50;2051643;28;2744010;-73
2023/02/25 04:14:03;;;;;;;;;6.50;4.33;;;;;7.89;60.13;100987.25;2051587;28;2744023;-72
2023/02/25 04:15:17;;;;;;;;;4.00;3.00;;;;;7.87;60.25;100997.75;2049362;28;2739216;-73
2023/02/25 04:16:30;;;;;;;;;6.50;4.50;;;;;7.86;60.33;100988.16;2053476;27;2749224;-72
2023/02/25 04:17:46;;;;;;;;;4.33;4.33;;;;;7.85;60.62;100998.66;2054047;28;2743528;-72
2023/02/25 04:18:59;;;;;;;;;3.83;3.83;;;;;7.84;60.31;101008.25;2052818;27;2754419;-73
2023/02/25 04:20:18;;;;;;;;;3.50;3.50;;;;;7.84;59.84;101005.63;2051602;28;2752328;-72
2023/02/25 04:21:34;;;;;;;;;7.00;6.00;;;;;7.84;60.44;101013.50;2026215;28;2753497;-73
2023/02/25 04:22:47;;;;;;;;;7.83;4.00;;;;;7.85;59.80;101002.13;2053158;27;2748169;-73
2023/02/25 04:24:04;;;;;;;;;9.33;4.33;;;;;7.88;59.76;101006.44;2053594;27;2752356;-73
2023/02/25 04:25:17;;;;;;;;;5.00;5.00;;;;;7.88;59.67;101009.06;2031032;27;2746087;-73
2023/02/25 04:26:31;;;;;;;;;5.33;4.00;;;;;7.90;60.32;101009.03;2049668;27;2752405;-73
2023/02/25 04:27:44;;;;;;;;;5.00;3.00;;;;;7.90;60.43;101011.66;2021567;28;2737773;-73
2023/02/25 04:28:57;;;;;;;;;6.50;4.33;;;;;7.91;59.95;101011.63;2022375;28;2747128;-73
2023/02/25 04:30:11;;;;;;;;;5.33;4.00;;;;;7.91;60.32;101011.63;2028564;28;2741916;-73
2023/02/25 04:31:21;;;;;;;;;9.00;5.33;;;;;7.93;60.03;101022.06;2026199;28;2757606;-73
2023/02/25 04:32:33;;;;;;;;;6.00;6.00;;;;;7.94;60.24;101015.94;2044086;28;2739866;-73
2023/02/25 04:33:48;;;;;;;;;5.67;4.83;;;;;7.95;59.49;101015.06;2028716;28;2750300;-73
2023/02/25 04:35:02;;;;;;;;;4.17;3.50;;;;;7.95;59.80;101012.44;2052692;28;2748174;-73
2023/02/25 04:36:27;;;;;;;;;7.50;4.33;;;;;7.95;59.82;101008.06;2052596;28;2751303;-73
2023/02/25 04:37:42;;;;;;;;;6.33;3.67;;;;;7.95;59.74;101010.66;2053222;27;2746091;-73
2023/02/25 04:38:57;;;;;;;;;6.67;5.00;;;;;7.94;60.04;101008.09;2060792;27;2751329;-73
2023/02/25 04:40:16;;;;;;;;;6.33;5.50;;;;;7.93;59.65;101006.34;2029247;28;2741932;-73
2023/02/25 04:41:32;;;;;;;;;6.83;4.67;;;;;7.93;60.11;101003.72;2053129;28;2748150;-73
2023/02/25 04:42:46;;;;;;;;;5.50;4.67;;;;;7.93;60.30;101014.22;2060203;27;2752360;-73
2023/02/25 04:44:02;;;;;;;;;6.00;3.33;;;;;7.90;60.16;101009.91;2057893;27;2754430;-73
2023/02/25 04:45:16;;;;;;;;;4.17;4.00;;;;;7.89;60.23;101013.41;2047167;28;2744046;-73
2023/02/25 04:46:29;;;;;;;;;6.17;4.33;;;;;7.91;60.04;101011.63;2052262;28;2754438;-73
2023/02/25 04:47:43;;;;;;;;;5.67;4.00;;;;;7.91;60.27;101008.13;2037128;27;2754431;-72
2023/02/25 04:48:56;;;;;;;;;4.00;3.00;;;;;7.91;60.26;101008.13;2059735;27;2737789;-73
2023/02/25 04:50:10;;;;;;;;;1.67;1.50;;;;;7.92;60.26;101007.25;2053324;27;2731516;-73
2023/02/25 04:51:24;;;;;;;;;7.00;3.50;;;;;7.94;59.79;101008.09;2053744;28;2731508;-73
2023/02/25 04:52:35;;;;;;;;;10.00;5.33;;;;;7.94;59.51;101003.72;2002093;28;2771686;-73
2023/02/25 04:53:48;;;;;;;;;5.33;4.67;;;;;7.94;59.59;101000.25;2050643;28;2752328;-72
2023/02/25 04:55:02;;;;;;;;;5.00;3.17;;;;;7.95;60.00;100999.38;2053345;27;2736728;-73
2023/02/25 04:56:16;;;;;;;;;5.33;5.00;;;;;7.95;59.59;101008.06;2052110;28;2752367;-73
2023/02/25 04:57:29;;;;;;;;;3.67;3.17;;;;;7.98;60.12;100999.28;2053474;28;2737797;-73
2023/02/25 04:58:43;;;;;;;;;5.83;4.50;;;;;8.00;59.78;101002.72;2052789;28;2750249;-73
2023/02/25 04:59:56;;;;;;;;;4.00;4.00;;;;;7.99;59.86;101004.50;2028903;27;2743001;-73
2023/02/25 05:01:07;;;;;;;;;8.00;3.00;;;;;8.02;59.85;101008.84;2026744;27;2740905;-73
2023/02/25 05:02:21;;;;;;;;;3.00;3.00;;;;;8.02;59.80;101003.59;2058542;27;2739858;-73
2023/02/25 05:03:35;;;;;;;;;3.83;3.50;;;;;8.02;59.31;101002.72;2055616;27;2750272;-73
2023/02/25 05:04:48;;;;;;;;;6.00;4.67;;;;;8.00;59.65;101000.13;2044431;28;2754915;-73
2023/02/25 05:06:02;;;;;;;;;5.83;4.17;;;;;8.02;59.65;101005.34;2051108;28;2738799;-73
2023/02/25 05:07:16;;;;;;;;;4.83;4.50;;;;;8.01;59.66;101011.47;2025264;28;2747152;-73
2023/02/25 05:08:30;;;;;;;;;7.17;4.33;;;;;8.00;59.46;101002.72;2051269;28;2752344;-73
2023/02/25 05:09:44;;;;;;;;;0.67;0.00;;;;;8.01;59.52;101001.84;2031152;27;2725298;-73
2023/02/25 05:10:57;;;;;;;;;4.17;4.17;;;;;8.00;59.46;101000.13;2053254;27;2750291;-73
2023/02/25 05:12:10;;;;;;;;;6.33;4.00;;;;;8.00;59.72;101002.72;2028286;28;2754438;-73
2023/02/25 05:13:24;;;;;;;;;10.17;4.17;;;;;7.97;59.24;101003.69;2051879;28;2758659;-73
2023/02/25 05:14:37;;;;;;;;;2.00;2.00;;;;;7.96;59.35;101001.06;2030753;27;2751338;-73
2023/02/25 05:15:50;;;;;;;;;4.67;3.33;;;;;7.95;59.58;101001.97;2052635;27;2752336;-73
2023/02/25 05:17:03;;;;;;;;;4.83;4.33;;;;;7.95;59.29;101004.59;2052263;27;2737776;-73
2023/02/25 05:18:16;;;;;;;;;6.17;3.00;;;;;7.93;59.82;101016.81;2053073;28;2750288;-73
2023/02/25 05:19:30;;;;;;;;;4.00;2.83;;;;;7.92;59.41;101004.66;2028334;28;2744026;-72
2023/02/25 05:20:45;;;;;;;;;5.00;4.00;;;;;7.88;59.86;101003.81;2053547;27;2744019;-73
2023/02/25 05:21:58;;;;;;;;;7.00;4.83;;;;;7.86;59.95;101003.84;2028338;28;2746118;-73
2023/02/25 05:23:13;;;;;;;;;6.17;3.00;;;;;7.84;59.75;101010.00;2051146;28;2741923;-73
2023/02/25 05:24:26;;;;;;;;;4.67;4.67;;;;;7.84;59.77;101008.25;2052060;27;2750284;-73
2023/02/25 05:25:40;;;;;;;;;4.33;3.00;;;;;7.82;59.80;101002.19;2053787;28;2722121;-73
2023/02/25 05:26:50;;;;;;;;;8.33;4.00;;;;;7.82;59.79;101004.81;2018183;27;2756534;-72
2023/02/25 05:28:03;;;;;;;;;8.80;4.00;;;;;7.80;60.22;100998.75;2048596;28;2747224;-73
2023/02/25 05:29:16;;;;;;;;;6.00;6.00;;;;;7.79;59.82;100997.00;2046630;28;2742990;-73
2023/02/25 05:30:30;;;;;;;;;6.50;4.83;;;;;7.78;59.78;100997.88;2050968;28;2747140;-72
2023/02/25 05:31:43;;;;;;;;;6.67;5.83;;;;;7.79;60.29;101004.84;2052393;28;2746668;-73
2023/02/25 05:32:56;;;;;;;;;6.50;3.17;;;;;7.75;60.11;101005.81;2052341;27;2754801;-73
2023/02/25 05:34:09;;;;;;;;;6.17;3.33;;;;;7.75;60.11;101003.19;2053833;27;2735681;-73
2023/02/25 05:35:22;;;;;;;;;7.67;6.00;;;;;7.73;60.20;101002.34;2051824;28;2748177;-72
2023/02/25 05:36:36;;;;;;;;;4.67;4.00;;;;;7.70;60.19;101005.00;2051828;27;2746119;-73
2023/02/25 05:37:49;;;;;;;;;4.50;2.83;;;;;7.67;60.21;101003.31;2052317;28;2754435;-72
2023/02/25 05:39:02;;;;;;;;;5.50;4.50;;;;;7.63;60.81;101002.47;2051707;28;2746101;-72
2023/02/25 05:40:15;;;;;;;;;9.17;5.00;;;;;7.59;60.54;101006.03;2051712;28;2748179;-72
2023/02/25 05:41:29;;;;;;;;;4.67;4.50;;;;;7.57;61.11;101005.22;2027208;27;2752773;-72
2023/02/25 05:42:43;;;;;;;;;6.50;5.17;;;;;7.54;60.64;101006.13;2047525;28;2740874;-72
2023/02/25 05:43:53;;;;;;;;;8.00;4.00;;;;;7.53;60.98;101007.00;2024891;27;2754447;-72
2023/02/25 05:45:09;;;;;;;;;6.50;4.00;;;;;7.51;60.62;101008.78;2048800;28;2748186;-73
2023/02/25 05:46:22;;;;;;;;;6.17;5.00;;;;;7.50;60.76;101004.44;2050233;28;2743013;-73
2023/02/25 05:47:35;;;;;;;;;6.50;5.17;;;;;7.50;60.70;101006.19;2052020;27;2752341;-73